createdAt,value
2019-01-12T00:00:26.148Z,6.10
2019-01-12T00:04:31.897Z,6.10
2019-01-12T00:08:37.601Z,6.20
2019-01-12T00:12:43.258Z,6.20
2019-01-12T00:16:48.971Z,6.20
2019-01-12T00:20:54.687Z,6.20
2019-01-12T00:25:00.363Z,6.30
2019-01-12T00:29:06.025Z,6.30
2019-01-12T00:33:11.874Z,6.40
2019-01-12T00:37:17.555Z,6.40
2019-01-12T00:41:35.385Z,6.40
2019-01-12T00:50:37.240Z,6.30
2019-01-12T00:54:55.121Z,6.40
2019-01-12T01:04:01.336Z,6.50
2019-01-12T01:08:19.208Z,6.50
2019-01-12T01:12:44.378Z,6.50
2019-01-12T01:17:02.327Z,6.40
2019-01-12T01:30:40.365Z,6.70
2019-01-12T01:35:17.181Z,6.80
2019-01-12T01:39:35.320Z,6.80
2019-01-12T01:43:53.361Z,6.80
2019-01-12T01:48:18.389Z,6.80
2019-01-12T01:52:36.759Z,6.80
2019-01-12T01:57:01.781Z,6.70
2019-01-12T02:01:19.886Z,6.60
2019-01-12T02:05:44.987Z,6.60
2019-01-12T02:10:03.170Z,6.70
2019-01-12T02:14:09.833Z,6.70
2019-01-12T02:18:25.820Z,6.70
2019-01-12T02:22:51.810Z,6.70
2019-01-12T02:27:09.351Z,6.90
2019-01-12T02:31:34.389Z,7.00
2019-01-12T02:35:50.278Z,7.00
2019-01-12T02:40:09.333Z,7.00
2019-01-12T02:44:26.876Z,6.80
2019-01-12T02:48:42.811Z,6.60
2019-01-12T02:52:58.744Z,6.70
2019-01-12T02:57:23.761Z,6.80
2019-01-12T03:01:41.267Z,6.60
2019-01-12T03:06:06.289Z,6.70
2019-01-12T03:10:24.237Z,6.70
2019-01-12T03:14:49.255Z,6.80
2019-01-12T03:19:07.301Z,7.00
2019-01-12T03:23:32.323Z,7.10
2019-01-12T03:27:50.443Z,6.90
2019-01-12T03:32:15.487Z,6.90
2019-01-12T03:36:33.722Z,6.80
2019-01-12T03:40:51.260Z,6.30
2019-01-12T03:45:10.410Z,6.20
2019-01-12T03:49:35.434Z,6.60
2019-01-12T03:53:52.891Z,6.40
2019-01-12T03:58:17.924Z,6.60
2019-01-12T04:02:35.894Z,6.80
2019-01-12T04:07:00.920Z,6.90
2019-01-12T04:11:18.792Z,6.90
2019-01-12T04:15:43.819Z,7.00
2019-01-12T04:20:01.820Z,7.20
2019-01-12T04:24:26.832Z,7.30
2019-01-12T04:28:44.513Z,7.20
2019-01-12T04:37:58.319Z,7.10
2019-01-12T04:42:14.244Z,7.20
2019-01-12T04:46:39.296Z,7.20
2019-01-12T04:50:55.254Z,7.30
2019-01-12T04:55:20.272Z,7.20
2019-01-12T04:59:38.479Z,6.90
2019-01-12T05:03:56.691Z,6.80
2019-01-12T05:08:21.715Z,6.70
2019-01-12T05:12:39.767Z,6.00
2019-01-12T05:21:41.478Z,5.80
2019-01-12T05:25:58.991Z,6.00
2019-01-12T05:35:01.064Z,6.40
2019-01-12T05:39:18.983Z,6.70
2019-01-12T05:43:35.061Z,6.80
2019-01-12T05:48:00.093Z,6.70
2019-01-12T05:52:18.289Z,6.50
2019-01-12T05:56:43.317Z,6.30
2019-01-12T06:01:01.134Z,6.60
2019-01-12T06:05:17.738Z,6.90
2019-01-12T06:09:42.772Z,6.90
2019-01-12T06:14:00.722Z,6.70
2019-01-12T06:18:25.742Z,6.80
2019-01-12T06:22:44.170Z,6.70
2019-01-12T06:27:09.201Z,6.70
2019-01-12T06:31:27.261Z,6.80
2019-01-12T06:45:40.521Z,6.40
2019-01-12T06:50:26.316Z,6.30
2019-01-12T06:54:54.618Z,6.00
2019-01-12T06:59:12.905Z,5.90
2019-01-12T07:08:43.473Z,6.00
2019-01-12T07:13:01.134Z,5.70
2019-01-12T07:22:08.853Z,5.70
2019-01-12T07:26:26.485Z,5.80
2019-01-12T07:30:51.726Z,5.40
2019-01-12T07:35:09.672Z,5.50
2019-01-12T07:39:28.180Z,5.70
2019-01-12T07:43:53.203Z,5.60
2019-01-12T07:48:11.148Z,5.70
2019-01-12T07:52:36.313Z,5.80
2019-01-12T07:56:54.554Z,5.80
2019-01-12T08:01:19.630Z,6.10
2019-01-12T08:05:37.966Z,6.30
2019-01-12T08:09:55.988Z,6.10
2019-01-12T08:14:13.816Z,5.90
2019-01-12T09:01:38.120Z,5.50
2019-01-12T09:15:53.624Z,5.50
2019-01-12T09:31:02.396Z,5.40
2019-01-12T09:35:20.070Z,5.50
2019-01-12T09:39:38.231Z,5.50
2019-01-12T09:43:56.025Z,5.50
2019-01-12T09:48:21.062Z,5.60
2019-01-12T09:52:38.677Z,5.70
2019-01-12T09:57:03.702Z,5.70
2019-01-12T10:01:21.641Z,5.80
2019-01-12T10:06:05.690Z,5.90
2019-01-12T10:10:23.771Z,6.00
2019-01-12T10:19:25.233Z,5.80
2019-01-12T10:23:42.838Z,6.10
2019-01-12T10:28:00.625Z,6.30
2019-01-12T10:32:25.726Z,6.10
2019-01-12T10:36:43.375Z,6.30
2019-01-12T10:45:56.829Z,6.00
2019-01-12T10:50:40.843Z,6.00
2019-01-12T11:00:39.796Z,6.10
2019-01-12T11:04:57.328Z,6.10
2019-01-12T11:09:22.351Z,6.10
2019-01-12T11:13:44.118Z,6.20
2019-01-12T11:18:50.923Z,6.10
2019-01-12T11:28:12.130Z,5.90
2019-01-12T11:32:30.081Z,5.80
2019-01-12T11:42:48.897Z,5.80
2019-01-12T11:47:52.501Z,5.80
2019-01-12T11:52:10.572Z,6.00
2019-01-12T11:56:54.942Z,5.90
2019-01-12T12:15:46.085Z,5.80
2019-01-12T12:34:29.060Z,5.70
2019-01-12T12:38:47.189Z,6.10
2019-01-12T12:53:21.503Z,6.40
2019-01-12T12:57:46.593Z,6.70
2019-01-12T13:02:04.758Z,6.50
2019-01-12T13:06:29.867Z,6.50
2019-01-12T13:10:47.525Z,6.50
2019-01-12T13:25:45.938Z,6.50
2019-01-12T13:30:09.663Z,6.30
2019-01-12T13:34:15.340Z,6.40
2019-01-12T13:38:21.041Z,6.40
2019-01-12T13:42:26.709Z,6.40
2019-01-12T13:46:32.469Z,6.50
2019-01-12T13:50:38.167Z,6.80
2019-01-12T13:54:43.858Z,6.80
2019-01-12T13:58:49.572Z,6.30
2019-01-12T14:02:55.412Z,6.20
2019-01-12T14:07:01.103Z,6.30
2019-01-12T14:11:06.874Z,6.20
2019-01-12T14:15:16.075Z,6.30
2019-01-12T14:19:21.838Z,6.40
2019-01-12T14:23:27.511Z,6.30
2019-01-12T14:27:33.196Z,6.30
2019-01-12T14:31:38.899Z,6.30
2019-01-12T14:35:44.615Z,6.10
2019-01-12T14:39:50.308Z,6.10
2019-01-12T14:43:56.036Z,6.40
2019-01-12T14:48:01.971Z,6.50
2019-01-12T14:52:07.672Z,6.80
2019-01-12T14:56:13.377Z,6.90
2019-01-12T15:00:22.621Z,6.90
2019-01-12T15:04:28.269Z,7.00
2019-01-12T15:08:33.997Z,7.10
2019-01-12T15:12:39.769Z,7.20
2019-01-12T15:16:45.474Z,7.30
2019-01-12T15:20:51.165Z,7.10
2019-01-12T15:24:56.846Z,7.20
2019-01-12T15:29:02.542Z,7.30
2019-01-12T15:33:08.252Z,7.40
2019-01-12T15:37:13.941Z,7.30
2019-01-12T15:41:19.685Z,7.10
2019-01-12T15:45:27.244Z,7.10
2019-01-12T15:49:32.929Z,7.00
2019-01-12T15:53:38.620Z,7.00
2019-01-12T15:57:50.174Z,6.80
2019-01-12T16:01:55.871Z,6.40
2019-01-12T16:06:01.569Z,6.20
2019-01-12T16:10:12.644Z,6.20
2019-01-12T16:14:18.311Z,6.20
2019-01-12T16:18:24.025Z,6.40
2019-01-12T16:22:29.729Z,6.40
2019-01-12T16:26:35.388Z,6.50
2019-01-12T16:30:50.146Z,6.50
2019-01-12T16:34:55.836Z,6.60
2019-01-12T16:39:01.518Z,6.40
2019-01-12T16:43:47.505Z,5.80
2019-01-12T16:47:53.332Z,5.50
2019-01-12T16:51:59.022Z,5.30
2019-01-12T16:56:04.855Z,5.00
2019-01-12T17:00:15.380Z,4.90
2019-01-12T17:04:50.641Z,4.90
2019-01-12T17:08:56.305Z,4.90
2019-01-12T17:13:02.149Z,5.00
2019-01-12T17:17:07.877Z,5.00
2019-01-12T17:21:13.558Z,4.90
2019-01-12T17:25:19.484Z,4.80
2019-01-12T17:29:52.018Z,4.70
2019-01-12T17:33:57.706Z,4.60
2019-01-12T17:38:03.469Z,4.70
2019-01-12T17:42:09.181Z,4.60
2019-01-12T17:46:14.893Z,4.50
2019-01-12T17:50:24.920Z,4.40
2019-01-12T17:54:30.604Z,4.20
2019-01-12T17:58:36.292Z,4.20
2019-01-12T18:02:42.051Z,4.10
2019-01-12T18:06:47.741Z,4.20
2019-01-12T18:10:53.504Z,4.00
2019-01-12T18:14:59.181Z,3.90
2019-01-12T18:19:04.895Z,4.10
2019-01-12T18:23:10.649Z,3.80
2019-01-12T18:27:16.334Z,3.70
2019-01-12T18:31:22.024Z,3.50
2019-01-12T18:35:27.830Z,3.40
2019-01-12T18:39:33.492Z,3.40
2019-01-12T18:43:39.187Z,3.30
2019-01-12T18:53:07.305Z,3.20
2019-01-12T18:57:25.470Z,3.10
2019-01-12T19:01:50.577Z,3.10
2019-01-12T19:06:08.575Z,3.20
2019-01-12T19:15:29.850Z,3.30
2019-01-12T19:19:47.477Z,3.30
2019-01-12T19:24:05.313Z,3.50
2019-01-12T19:28:30.339Z,3.60
2019-01-12T19:32:48.256Z,3.70
2019-01-12T19:41:43.695Z,3.70
2019-01-12T19:50:58.219Z,3.70
2019-01-12T19:55:16.045Z,3.70
2019-01-12T20:00:00.397Z,3.60
2019-01-12T20:04:18.476Z,3.60
2019-01-12T20:14:54.959Z,3.70
2019-01-12T20:19:58.562Z,3.70
2019-01-12T20:24:16.855Z,3.80
2019-01-12T20:29:01.259Z,3.80
2019-01-12T20:33:24.016Z,3.70
2019-01-12T20:38:46.697Z,3.70
2019-01-12T20:43:06.200Z,3.80
2019-01-12T20:48:09.873Z,3.60
2019-01-12T20:52:50.125Z,3.60
2019-01-12T20:57:53.758Z,3.70
2019-01-12T21:02:50.409Z,3.70
2019-01-12T21:07:54.044Z,3.70
2019-01-12T21:12:30.835Z,3.70
2019-01-12T21:17:07.440Z,3.80
2019-01-12T21:26:09.044Z,3.80
2019-01-12T21:30:49.328Z,3.80
2019-01-12T21:35:52.930Z,3.90
2019-01-12T21:40:11.651Z,3.90
2019-01-12T21:44:36.678Z,3.90
2019-01-12T21:48:54.491Z,3.80
2019-01-12T21:53:58.107Z,3.80
2019-01-12T21:58:54.579Z,3.80
2019-01-12T22:07:36.996Z,3.90
2019-01-12T22:11:42.805Z,3.90
2019-01-12T22:15:48.480Z,3.90
2019-01-12T22:19:54.181Z,3.90
2019-01-12T22:28:37.532Z,3.90
2019-01-12T22:32:55.557Z,4.00
2019-01-12T22:37:13.323Z,4.10
2019-01-12T22:46:14.825Z,4.10
2019-01-12T22:50:32.841Z,4.20
2019-01-12T22:54:50.662Z,4.20
2019-01-12T22:59:15.720Z,4.20
2019-01-12T23:03:33.937Z,4.30
2019-01-12T23:07:58.978Z,4.30
2019-01-12T23:12:15.149Z,4.30
2019-01-12T23:16:40.193Z,4.40
2019-01-12T23:20:58.131Z,4.40
2019-01-12T23:25:24.120Z,4.30
2019-01-12T23:29:40.050Z,4.30
2019-01-12T23:38:42.437Z,4.50
2019-01-12T23:52:20.345Z,4.70
2019-01-12T23:56:38.089Z,4.50
